createdAt,value
2023-01-01T00:00:28.244Z,85.53
2023-01-01T00:01:28.182Z,84.92
2023-01-01T00:02:33.273Z,85.13
2023-01-01T00:03:30.445Z,85.53
2023-01-01T00:04:28.156Z,85.53
2023-01-01T00:05:28.172Z,85.43
2023-01-01T00:06:28.134Z,84.58
2023-01-01T00:07:28.127Z,84.88
2023-01-01T00:08:28.143Z,84.82
2023-01-01T00:09:28.122Z,85.22
2023-01-01T00:10:28.127Z,85.43
2023-01-01T00:11:28.148Z,85.22
2023-01-01T00:12:28.092Z,85.63
2023-01-01T00:13:28.072Z,85.77
2023-01-01T00:14:28.075Z,85.37
2023-01-01T00:15:28.129Z,86.29
2023-01-01T00:16:28.066Z,86.22
2023-01-01T00:17:28.110Z,86.39
2023-01-01T00:18:28.041Z,86.22
2023-01-01T00:19:28.062Z,86.49
2023-01-01T00:20:33.329Z,86.43
2023-01-01T00:21:30.025Z,86.39
2023-01-01T00:22:53.496Z,86.43
2023-01-01T00:23:30.023Z,86.73
2023-01-01T00:24:28.007Z,86.43
2023-01-01T00:25:28.006Z,86.94
2023-01-01T00:26:32.746Z,86.43
2023-01-01T00:27:29.968Z,86.63
2023-01-01T00:28:27.967Z,86.69
2023-01-01T00:29:28.960Z,86.59
2023-01-01T00:30:28.015Z,85.68
2023-01-01T00:31:28.047Z,86.49
2023-01-01T00:32:28.022Z,85.88
2023-01-01T00:33:27.997Z,86.29
2023-01-01T00:34:27.966Z,86.43
2023-01-01T00:35:27.964Z,86.53
2023-01-01T00:36:28.036Z,86.22
2023-01-01T00:37:27.958Z,86.69
2023-01-01T00:38:27.883Z,86.39
2023-01-01T00:39:27.877Z,86.29
2023-01-01T00:40:27.896Z,85.57
2023-01-01T00:41:27.858Z,85.33
2023-01-01T00:42:27.866Z,85.88
2023-01-01T00:43:27.848Z,85.43
2023-01-01T00:44:27.841Z,85.98
2023-01-01T00:45:27.857Z,85.88
2023-01-01T00:46:27.857Z,85.47
2023-01-01T00:47:27.822Z,85.47
2023-01-01T00:48:27.821Z,85.57
2023-01-01T00:49:27.799Z,85.77
2023-01-01T00:50:27.826Z,85.98
2023-01-01T00:51:30.469Z,85.92
2023-01-01T00:52:29.773Z,86.22
2023-01-01T00:53:27.768Z,86.83
2023-01-01T00:54:27.753Z,86.43
2023-01-01T00:55:27.782Z,86.73
2023-01-01T00:56:27.735Z,86.63
2023-01-01T00:57:27.735Z,86.53
2023-01-01T00:58:27.736Z,86.33
2023-01-01T00:59:29.047Z,85.68
2023-01-01T01:00:28.743Z,86.33
2023-01-01T01:01:27.823Z,86.67
2023-01-01T01:02:27.838Z,86.53
2023-01-01T01:03:27.684Z,86.33
2023-01-01T01:04:27.677Z,86.94
2023-01-01T01:05:27.698Z,87.04
2023-01-01T01:06:27.693Z,86.67
2023-01-01T01:07:27.650Z,86.77
2023-01-01T01:08:31.014Z,86.47
2023-01-01T01:09:28.642Z,86.67
2023-01-01T01:10:27.651Z,87.12
2023-01-01T01:11:27.623Z,87.63
2023-01-01T01:12:27.619Z,87.79
2023-01-01T01:13:27.601Z,87.73
2023-01-01T01:14:27.594Z,87.63
2023-01-01T01:15:27.585Z,87.53
2023-01-01T01:16:27.652Z,87.63
2023-01-01T01:17:27.576Z,87.73
2023-01-01T01:18:27.570Z,87.63
2023-01-01T01:19:27.552Z,86.91
2023-01-01T01:20:27.555Z,87.84
2023-01-01T01:21:27.568Z,87.43
2023-01-01T01:22:28.989Z,87.53
2023-01-01T01:23:28.563Z,87.63
2023-01-01T01:24:27.513Z,87.23
2023-01-01T01:25:27.507Z,88.49
2023-01-01T01:26:27.525Z,88.59
2023-01-01T01:27:27.488Z,88.49
2023-01-01T01:28:27.610Z,88.29
2023-01-01T01:29:27.475Z,87.98
2023-01-01T01:30:27.556Z,88.08
2023-01-01T01:31:27.494Z,88.29
2023-01-01T01:32:27.465Z,88.49
2023-01-01T01:33:27.449Z,88.18
2023-01-01T01:34:28.423Z,88.39
2023-01-01T01:35:28.437Z,88.29
2023-01-01T01:36:27.460Z,88.59
2023-01-01T01:37:27.419Z,88.49
2023-01-01T01:38:27.447Z,88.90
2023-01-01T01:39:27.407Z,88.39
2023-01-01T01:40:27.403Z,89.25
2023-01-01T01:41:29.028Z,88.43
2023-01-01T01:42:28.376Z,89.25
2023-01-01T01:43:27.369Z,88.94
2023-01-01T01:44:27.362Z,89.45
2023-01-01T01:45:33.278Z,89.41
2023-01-01T01:46:29.415Z,89.11
2023-01-01T01:47:27.355Z,88.23
2023-01-01T01:48:27.324Z,89.11
2023-01-01T01:49:27.333Z,89.15
2023-01-01T01:50:27.321Z,89.31
2023-01-01T01:51:27.330Z,89.15
2023-01-01T01:52:27.304Z,89.25
2023-01-01T01:53:27.293Z,88.64
2023-01-01T01:54:27.279Z,88.94
2023-01-01T01:55:27.280Z,89.35
2023-01-01T01:56:27.289Z,88.78
2023-01-01T01:57:27.253Z,89.39
2023-01-01T01:58:27.254Z,89.09
2023-01-01T01:59:27.249Z,89.09
2023-01-01T02:00:27.237Z,89.43
2023-01-01T02:01:27.364Z,89.70
2023-01-01T02:02:27.375Z,90.36
2023-01-01T02:03:27.304Z,89.90
2023-01-01T02:04:27.236Z,90.00
2023-01-01T02:05:27.198Z,90.31
2023-01-01T02:06:27.220Z,89.70
2023-01-01T02:07:27.216Z,90.45
2023-01-01T02:08:27.183Z,90.11
2023-01-01T02:09:27.231Z,90.21
2023-01-01T02:10:27.150Z,90.77
2023-01-01T02:11:27.170Z,90.72
2023-01-01T02:12:27.133Z,89.50
2023-01-01T02:13:27.139Z,89.90
2023-01-01T02:14:27.122Z,90.31
2023-01-01T02:15:27.112Z,89.50
2023-01-01T02:16:27.145Z,90.41
2023-01-01T02:17:27.096Z,90.11
2023-01-01T02:18:27.095Z,90.25
2023-01-01T02:19:27.085Z,90.82
2023-01-01T02:20:27.079Z,90.82
2023-01-01T02:21:27.097Z,90.41
2023-01-01T02:22:27.064Z,90.17
2023-01-01T02:23:27.044Z,90.27
2023-01-01T02:24:27.038Z,89.15
2023-01-01T02:25:27.033Z,89.65
2023-01-01T02:26:27.021Z,89.56
2023-01-01T02:27:27.040Z,89.31
2023-01-01T02:28:27.010Z,89.65
2023-01-01T02:29:27.009Z,89.04
2023-01-01T02:30:26.994Z,89.25
2023-01-01T02:31:27.072Z,89.25
2023-01-01T02:32:27.013Z,89.25
2023-01-01T02:33:26.974Z,89.29
2023-01-01T02:34:26.974Z,90.11
2023-01-01T02:35:26.959Z,89.90
2023-01-01T02:36:26.966Z,90.17
2023-01-01T02:37:26.966Z,90.37
2023-01-01T02:38:26.934Z,89.15
2023-01-01T02:39:26.929Z,89.51
2023-01-01T02:40:26.922Z,89.00
2023-01-01T02:41:26.907Z,89.51
2023-01-01T02:42:26.936Z,89.20
2023-01-01T02:43:26.913Z,89.20
2023-01-01T02:44:26.924Z,89.20
2023-01-01T02:45:26.875Z,89.51
2023-01-01T02:46:26.871Z,89.37
2023-01-01T02:47:26.883Z,89.11
2023-01-01T02:48:26.854Z,89.11
2023-01-01T02:49:26.854Z,89.17
2023-01-01T02:50:26.837Z,88.85
2023-01-01T02:51:26.834Z,88.96
2023-01-01T02:52:26.846Z,88.96
2023-01-01T02:53:26.815Z,89.26
2023-01-01T02:54:26.812Z,89.17
2023-01-01T02:55:26.798Z,89.26
2023-01-01T02:56:26.788Z,88.65
2023-01-01T02:57:26.801Z,89.17
2023-01-01T02:58:26.826Z,89.17
2023-01-01T02:59:26.761Z,89.47
2023-01-01T03:00:26.768Z,89.06
2023-01-01T03:01:26.843Z,89.12
2023-01-01T03:02:26.822Z,89.23
2023-01-01T03:03:26.844Z,89.26
2023-01-01T03:04:26.727Z,89.12
2023-01-01T03:05:26.730Z,89.17
2023-01-01T03:06:26.736Z,89.17
2023-01-01T03:07:26.775Z,89.43
2023-01-01T03:08:27.707Z,89.12
2023-01-01T03:09:26.697Z,88.82
2023-01-01T03:10:26.683Z,89.23
2023-01-01T03:11:26.676Z,89.02
2023-01-01T03:12:26.697Z,89.02
2023-01-01T03:13:26.690Z,88.71
2023-01-01T03:14:26.649Z,89.12
2023-01-01T03:15:26.646Z,89.08
2023-01-01T03:16:26.635Z,88.17
2023-01-01T03:17:26.690Z,88.17
2023-01-01T03:18:26.642Z,88.57
2023-01-01T03:19:26.614Z,88.26
2023-01-01T03:20:26.601Z,88.06
2023-01-01T03:21:26.609Z,89.49
2023-01-01T03:22:26.599Z,88.88
2023-01-01T03:23:26.619Z,89.12
2023-01-01T03:24:26.580Z,88.61
2023-01-01T03:25:26.557Z,88.71
2023-01-01T03:26:26.552Z,88.98
2023-01-01T03:27:26.625Z,89.02
2023-01-01T03:28:26.566Z,88.61
2023-01-01T03:29:26.581Z,88.82
2023-01-01T03:30:26.521Z,88.61
2023-01-01T03:31:26.674Z,89.02
2023-01-01T03:32:26.508Z,88.71
2023-01-01T03:33:26.522Z,89.02
2023-01-01T03:34:26.501Z,89.32
2023-01-01T03:35:26.492Z,88.92
2023-01-01T03:36:26.501Z,88.92
2023-01-01T03:37:26.467Z,89.37
2023-01-01T03:38:26.496Z,89.43
2023-01-01T03:39:26.451Z,89.47
2023-01-01T03:40:26.452Z,89.47
2023-01-01T03:41:26.449Z,89.17
2023-01-01T03:42:26.436Z,89.26
2023-01-01T03:43:26.445Z,89.17
2023-01-01T03:44:26.419Z,89.58
2023-01-01T03:45:26.406Z,90.39
2023-01-01T03:46:26.412Z,89.26
2023-01-01T03:47:26.393Z,89.06
2023-01-01T03:48:26.413Z,89.00
2023-01-01T03:49:26.372Z,89.72
2023-01-01T03:50:26.368Z,90.02
2023-01-01T03:51:26.361Z,90.02
2023-01-01T03:52:26.348Z,90.17
2023-01-01T03:53:26.375Z,90.68
2023-01-01T03:54:26.352Z,91.09
2023-01-01T03:55:26.330Z,91.54
2023-01-01T03:56:26.318Z,92.36
2023-01-01T03:57:26.314Z,92.32
2023-01-01T03:58:26.340Z,91.91
2023-01-01T03:59:26.295Z,90.94
2023-01-01T04:00:26.286Z,91.15
2023-01-01T04:01:26.451Z,90.74
2023-01-01T04:02:26.385Z,90.70
2023-01-01T04:03:26.327Z,90.90
2023-01-01T04:04:26.256Z,90.70
2023-01-01T04:05:26.250Z,90.39
2023-01-01T04:06:26.260Z,90.59
2023-01-01T04:07:26.228Z,89.98
2023-01-01T04:08:26.223Z,89.98
2023-01-01T04:09:26.245Z,89.98
2023-01-01T04:10:26.211Z,89.82
2023-01-01T04:11:26.207Z,90.74
2023-01-01T04:12:26.195Z,90.49
2023-01-01T04:13:26.186Z,90.59
2023-01-01T04:14:26.207Z,90.80
2023-01-01T04:15:26.173Z,90.84
2023-01-01T04:16:26.205Z,90.23
2023-01-01T04:17:26.148Z,90.64
2023-01-01T04:18:26.159Z,90.64
2023-01-01T04:19:26.174Z,90.88
2023-01-01T04:20:26.142Z,90.84
2023-01-01T04:21:26.140Z,91.15
2023-01-01T04:22:26.113Z,90.84
2023-01-01T04:23:26.114Z,91.25
2023-01-01T04:24:26.129Z,91.25
2023-01-01T04:25:26.097Z,90.99
2023-01-01T04:26:26.098Z,91.29
2023-01-01T04:27:26.085Z,91.50
2023-01-01T04:28:26.073Z,91.39
2023-01-01T04:29:26.090Z,91.44
2023-01-01T04:30:26.055Z,91.39
2023-01-01T04:31:26.048Z,91.54
2023-01-01T04:32:26.038Z,91.64
2023-01-01T04:33:26.031Z,92.36
2023-01-01T04:34:26.063Z,92.36
2023-01-01T04:35:26.043Z,91.74
2023-01-01T04:36:26.030Z,91.95
2023-01-01T04:37:26.003Z,91.69
2023-01-01T04:38:26.001Z,92.10
2023-01-01T04:39:26.004Z,92.25
2023-01-01T04:40:25.988Z,92.25
2023-01-01T04:41:25.977Z,92.56
2023-01-01T04:42:25.964Z,92.25
2023-01-01T04:43:25.962Z,92.46
2023-01-01T04:44:25.979Z,92.36
2023-01-01T04:45:26.013Z,92.05
2023-01-01T04:46:25.951Z,92.25
2023-01-01T04:47:25.922Z,92.36
2023-01-01T04:48:25.918Z,92.15
2023-01-01T04:49:25.936Z,92.56
2023-01-01T04:50:25.903Z,91.85
2023-01-01T04:51:25.905Z,92.05
2023-01-01T04:52:25.892Z,92.36
2023-01-01T04:53:25.873Z,91.54
2023-01-01T04:54:25.902Z,91.95
2023-01-01T04:55:25.855Z,92.46
2023-01-01T04:56:25.854Z,92.46
2023-01-01T04:57:25.842Z,91.64
2023-01-01T04:58:25.840Z,91.23
2023-01-01T04:59:25.852Z,91.54
2023-01-01T05:00:25.843Z,91.54
2023-01-01T05:01:25.909Z,91.60
2023-01-01T05:02:25.933Z,91.39
2023-01-01T05:03:25.794Z,91.23
2023-01-01T05:04:25.826Z,91.09
2023-01-01T05:05:25.781Z,91.39
2023-01-01T05:06:25.800Z,90.64
2023-01-01T05:07:25.778Z,90.64
2023-01-01T05:08:25.757Z,90.53
2023-01-01T05:09:25.755Z,90.64
2023-01-01T05:10:25.760Z,90.64
2023-01-01T05:11:26.742Z,90.80
2023-01-01T05:12:25.727Z,90.74
2023-01-01T05:13:25.720Z,90.64
2023-01-01T05:14:25.712Z,90.70
2023-01-01T05:15:25.728Z,90.08
2023-01-01T05:16:25.723Z,90.19
2023-01-01T05:17:25.690Z,90.04
2023-01-01T05:18:25.679Z,89.84
2023-01-01T05:19:25.669Z,89.23
2023-01-01T05:20:25.701Z,88.98
2023-01-01T05:21:25.661Z,89.04
2023-01-01T05:22:25.651Z,88.22
2023-01-01T05:23:25.643Z,88.02
2023-01-01T05:24:25.632Z,87.61
2023-01-01T05:25:25.650Z,87.92
2023-01-01T05:26:25.623Z,87.92
2023-01-01T05:27:25.608Z,87.88
2023-01-01T05:28:25.600Z,87.26
2023-01-01T05:29:25.595Z,87.47
2023-01-01T05:30:25.615Z,86.55
2023-01-01T05:31:25.626Z,86.76
2023-01-01T05:32:25.569Z,86.82
2023-01-01T05:33:25.565Z,86.10
2023-01-01T05:34:25.570Z,86.30
2023-01-01T05:35:26.802Z,86.15
2023-01-01T05:36:26.543Z,85.94
2023-01-01T05:37:25.533Z,85.63
2023-01-01T05:38:25.519Z,86.55
2023-01-01T05:39:25.523Z,86.86
2023-01-01T05:40:25.532Z,86.45
2023-01-01T05:41:25.496Z,86.45
2023-01-01T05:42:25.485Z,86.59
2023-01-01T05:43:25.504Z,87.61
2023-01-01T05:44:25.484Z,87.41
2023-01-01T05:45:25.502Z,87.00
2023-01-01T05:46:25.466Z,87.96
2023-01-01T05:47:29.644Z,87.76
2023-01-01T05:48:25.444Z,88.12
2023-01-01T05:49:25.429Z,87.51
2023-01-01T05:50:25.452Z,87.51
2023-01-01T05:51:25.426Z,87.30
2023-01-01T05:52:27.024Z,87.51
2023-01-01T05:53:26.399Z,88.06
2023-01-01T05:54:25.395Z,87.76
2023-01-01T05:55:25.405Z,88.37
2023-01-01T05:56:25.375Z,88.26
2023-01-01T05:57:25.365Z,88.47
2023-01-01T05:58:25.369Z,89.08
2023-01-01T05:59:25.356Z,88.98
2023-01-01T06:00:25.365Z,89.18
2023-01-01T06:01:25.435Z,88.61
2023-01-01T06:02:25.407Z,88.92
2023-01-01T06:03:25.339Z,88.92
2023-01-01T06:04:25.362Z,89.32
2023-01-01T06:05:25.338Z,88.67
2023-01-01T06:06:25.312Z,88.67
2023-01-01T06:07:25.289Z,88.06
2023-01-01T06:08:25.287Z,88.17
2023-01-01T06:09:25.287Z,88.22
2023-01-01T06:10:25.298Z,87.85
2023-01-01T06:11:25.259Z,87.85
2023-01-01T06:12:25.251Z,87.85
2023-01-01T06:13:25.255Z,87.82
2023-01-01T06:14:25.243Z,87.85
2023-01-01T06:15:25.265Z,88.17
2023-01-01T06:16:25.285Z,87.51
2023-01-01T06:17:25.213Z,87.00
2023-01-01T06:18:25.206Z,87.51
2023-01-01T06:19:25.202Z,86.39
2023-01-01T06:20:25.182Z,86.59
2023-01-01T06:21:25.209Z,87.61
2023-01-01T06:22:25.174Z,87.61
2023-01-01T06:23:25.166Z,87.51
2023-01-01T06:24:25.166Z,86.49
2023-01-01T06:25:25.139Z,86.69
2023-01-01T06:26:25.181Z,86.69
2023-01-01T06:27:25.130Z,86.35
2023-01-01T06:28:25.132Z,86.08
2023-01-01T06:29:25.124Z,86.69
2023-01-01T06:30:25.131Z,86.39
2023-01-01T06:31:25.136Z,87.10
2023-01-01T06:32:25.105Z,86.59
2023-01-01T06:33:25.083Z,86.39
2023-01-01T06:34:25.084Z,87.00
2023-01-01T06:35:25.072Z,87.00
2023-01-01T06:36:25.090Z,87.00
2023-01-01T06:37:25.051Z,86.59
2023-01-01T06:38:26.064Z,86.80
2023-01-01T06:39:25.040Z,86.15
2023-01-01T06:40:25.031Z,86.24
2023-01-01T06:41:25.064Z,85.94
2023-01-01T06:42:27.840Z,86.29
2023-01-01T06:43:26.999Z,86.24
2023-01-01T06:44:24.999Z,86.35
2023-01-01T06:45:24.991Z,85.74
2023-01-01T06:46:25.027Z,86.04
2023-01-01T06:47:24.974Z,85.69
2023-01-01T06:48:24.968Z,85.08
2023-01-01T06:49:24.966Z,84.78
2023-01-01T06:50:24.955Z,85.19
2023-01-01T06:51:24.994Z,85.28
2023-01-01T06:52:24.943Z,84.98
2023-01-01T06:53:24.936Z,85.28
2023-01-01T06:54:24.922Z,84.74
2023-01-01T06:55:24.913Z,85.05
2023-01-01T06:56:24.930Z,85.14
2023-01-01T06:57:24.898Z,84.98
2023-01-01T06:58:24.890Z,85.69
2023-01-01T06:59:24.892Z,85.49
2023-01-01T07:00:24.873Z,85.49
2023-01-01T07:01:24.996Z,85.49
2023-01-01T07:02:25.058Z,85.08
2023-01-01T07:03:24.882Z,85.60
2023-01-01T07:04:24.857Z,84.78
2023-01-01T07:05:24.837Z,84.88
2023-01-01T07:06:24.841Z,85.19
2023-01-01T07:07:27.831Z,85.28
2023-01-01T07:08:24.806Z,84.88
2023-01-01T07:09:24.800Z,85.28
2023-01-01T07:10:24.786Z,84.88
2023-01-01T07:11:24.816Z,85.53
2023-01-01T07:12:24.769Z,85.49
2023-01-01T07:13:24.759Z,85.28
2023-01-01T07:14:24.756Z,85.49
2023-01-01T07:15:24.745Z,85.60
2023-01-01T07:16:24.944Z,85.19
2023-01-01T07:17:24.730Z,84.88
2023-01-01T07:18:24.719Z,85.28
2023-01-01T07:19:24.718Z,85.49
2023-01-01T07:20:24.711Z,85.19
2023-01-01T07:21:28.732Z,85.19
2023-01-01T07:22:25.692Z,85.08
2023-01-01T07:23:24.684Z,84.88
2023-01-01T07:24:24.673Z,84.98
2023-01-01T07:25:24.663Z,85.08
2023-01-01T07:26:24.688Z,84.43
2023-01-01T07:27:24.645Z,84.58
2023-01-01T07:28:24.648Z,84.64
2023-01-01T07:29:24.633Z,84.88
2023-01-01T07:30:24.625Z,84.58
2023-01-01T07:31:24.691Z,85.19
2023-01-01T07:32:24.615Z,85.49
2023-01-01T07:33:24.597Z,84.98
2023-01-01T07:34:24.588Z,85.28
2023-01-01T07:35:24.587Z,85.60
2023-01-01T07:36:24.575Z,85.22
2023-01-01T07:37:24.592Z,85.19
2023-01-01T07:38:24.563Z,85.49
2023-01-01T07:39:24.549Z,84.74
2023-01-01T07:40:24.543Z,84.53
2023-01-01T07:41:24.537Z,84.64
2023-01-01T07:42:24.559Z,84.74
2023-01-01T07:43:24.518Z,84.64
2023-01-01T07:44:24.514Z,84.70
2023-01-01T07:45:24.505Z,84.59
2023-01-01T07:46:24.666Z,84.33
2023-01-01T07:47:24.510Z,83.82
2023-01-01T07:48:24.479Z,83.72
2023-01-01T07:49:24.468Z,84.19
2023-01-01T07:50:24.461Z,84.29
2023-01-01T07:51:24.483Z,83.72
2023-01-01T07:52:24.470Z,83.78
2023-01-01T07:53:24.451Z,83.17
2023-01-01T07:54:24.430Z,83.68
2023-01-01T07:55:24.430Z,83.68
2023-01-01T07:56:24.416Z,83.68
2023-01-01T07:57:24.433Z,83.17
2023-01-01T07:58:24.407Z,83.07
2023-01-01T07:59:24.391Z,82.73
2023-01-01T08:00:24.381Z,83.03
2023-01-01T08:01:24.498Z,82.82
2023-01-01T08:02:24.487Z,83.03
2023-01-01T08:03:24.424Z,83.23
2023-01-01T08:04:24.352Z,83.03
2023-01-01T08:05:26.838Z,82.93
2023-01-01T08:06:25.370Z,82.62
2023-01-01T08:07:24.360Z,82.32
2023-01-01T08:08:24.319Z,82.99
2023-01-01T08:09:24.321Z,82.52
2023-01-01T08:10:24.323Z,82.48
2023-01-01T08:11:24.306Z,82.89
2023-01-01T08:12:24.314Z,82.38
2023-01-01T08:13:24.285Z,82.38
2023-01-01T08:14:24.273Z,82.38
2023-01-01T08:15:24.268Z,82.59
2023-01-01T08:16:24.317Z,82.79
2023-01-01T08:17:24.274Z,82.89
2023-01-01T08:18:24.240Z,82.38
2023-01-01T08:19:24.231Z,82.68
2023-01-01T08:20:24.220Z,82.48
2023-01-01T08:21:24.225Z,82.18
2023-01-01T08:22:24.227Z,82.38
2023-01-01T08:23:24.210Z,82.18
2023-01-01T08:24:24.201Z,82.38
2023-01-01T08:25:24.199Z,81.63
2023-01-01T08:26:24.179Z,81.63
2023-01-01T08:27:24.203Z,82.34
2023-01-01T08:28:24.164Z,82.28
2023-01-01T08:29:24.169Z,81.46
2023-01-01T08:30:24.146Z,81.53
2023-01-01T08:31:24.211Z,82.34
2023-01-01T08:32:24.160Z,82.45
2023-01-01T08:33:24.124Z,81.73
2023-01-01T08:34:24.116Z,82.75
2023-01-01T08:35:24.109Z,82.65
2023-01-01T08:36:24.099Z,82.48
2023-01-01T08:37:24.123Z,82.45
2023-01-01T08:38:24.086Z,81.53
2023-01-01T08:39:24.074Z,81.33
2023-01-01T08:40:24.068Z,81.53
2023-01-01T08:41:24.060Z,81.90
2023-01-01T08:42:24.075Z,81.39
2023-01-01T08:43:24.060Z,80.74
2023-01-01T08:44:24.032Z,80.88
2023-01-01T08:45:24.032Z,80.80
2023-01-01T08:46:24.065Z,79.28
2023-01-01T08:47:24.036Z,78.74
2023-01-01T08:48:30.368Z,78.30
2023-01-01T08:49:25.993Z,78.19
2023-01-01T08:50:23.989Z,78.09
2023-01-01T08:51:23.983Z,77.55
2023-01-01T08:52:24.017Z,77.45
2023-01-01T08:53:23.959Z,76.09
2023-01-01T08:54:23.953Z,76.29
2023-01-01T08:55:23.950Z,76.46
2023-01-01T08:56:23.937Z,75.76
2023-01-01T08:57:23.936Z,76.26
2023-01-01T08:58:23.968Z,76.46
2023-01-01T08:59:23.910Z,76.06
2023-01-01T09:00:24.915Z,76.46
2023-01-01T09:01:23.992Z,76.46
2023-01-01T09:02:24.014Z,76.36
2023-01-01T09:03:24.038Z,76.09
2023-01-01T09:04:23.874Z,76.40
2023-01-01T09:05:23.890Z,76.67
2023-01-01T09:06:23.862Z,76.06
2023-01-01T09:07:23.866Z,75.92
2023-01-01T09:08:23.878Z,76.03
2023-01-01T09:09:30.837Z,75.52
2023-01-01T09:10:25.913Z,75.38
2023-01-01T09:11:23.833Z,75.68
2023-01-01T09:12:23.816Z,74.84
2023-01-01T09:13:23.838Z,75.07
2023-01-01T09:14:23.806Z,75.18
2023-01-01T09:15:23.803Z,74.98
2023-01-01T09:16:23.851Z,74.67
2023-01-01T09:17:23.773Z,75.11
2023-01-01T09:18:23.790Z,75.85
2023-01-01T09:19:23.759Z,75.92
2023-01-01T09:20:23.755Z,76.36
2023-01-01T09:21:23.751Z,76.77
2023-01-01T09:22:23.735Z,77.07
2023-01-01T09:23:23.754Z,77.41
2023-01-01T09:24:23.723Z,77.51
2023-01-01T09:25:23.709Z,77.95
2023-01-01T09:26:23.707Z,78.26
2023-01-01T09:27:23.692Z,78.06
2023-01-01T09:28:26.094Z,78.46
2023-01-01T09:29:24.679Z,78.40
2023-01-01T09:30:23.669Z,79.11
2023-01-01T09:31:23.705Z,79.04
2023-01-01T09:32:23.659Z,79.35
2023-01-01T09:33:23.671Z,79.04
2023-01-01T09:34:23.637Z,79.14
2023-01-01T09:35:23.631Z,79.08
2023-01-01T09:36:23.628Z,79.79
2023-01-01T09:37:23.613Z,81.01
2023-01-01T09:38:23.632Z,79.32
2023-01-01T09:39:23.599Z,80.19
2023-01-01T09:40:23.603Z,80.13
2023-01-01T09:41:23.582Z,80.24
2023-01-01T09:42:23.574Z,80.24
2023-01-01T09:43:23.597Z,80.64
2023-01-01T09:44:23.564Z,80.30
2023-01-01T09:45:23.553Z,80.54
2023-01-01T09:46:29.571Z,80.94
2023-01-01T09:47:25.543Z,80.13
2023-01-01T09:48:23.561Z,80.44
2023-01-01T09:49:23.532Z,80.94
2023-01-01T09:50:23.512Z,80.44
2023-01-01T09:51:23.508Z,80.64
2023-01-01T09:52:23.518Z,80.94
2023-01-01T09:53:23.511Z,80.84
2023-01-01T09:54:23.494Z,81.62
2023-01-01T09:55:23.469Z,81.56
2023-01-01T09:56:23.469Z,81.72
2023-01-01T09:57:23.462Z,80.94
2023-01-01T09:58:23.443Z,80.64
2023-01-01T09:59:23.459Z,81.35
2023-01-01T10:00:23.451Z,81.25
2023-01-01T10:01:23.605Z,80.33
2023-01-01T10:02:23.417Z,81.01
2023-01-01T10:03:23.409Z,82.87
2023-01-01T10:04:23.456Z,82.31
2023-01-01T10:05:23.393Z,81.35
2023-01-01T10:06:23.386Z,82.57
2023-01-01T10:07:23.373Z,82.51
2023-01-01T10:08:23.835Z,82.26
2023-01-01T10:09:24.389Z,82.26
2023-01-01T10:10:23.430Z,82.31
2023-01-01T10:11:23.355Z,81.59
2023-01-01T10:12:23.348Z,82.00
2023-01-01T10:13:23.337Z,82.23
2023-01-01T10:14:23.352Z,82.37
2023-01-01T10:15:23.334Z,81.15
2023-01-01T10:16:25.050Z,81.35
2023-01-01T10:17:24.299Z,81.35
2023-01-01T10:18:23.287Z,81.52
2023-01-01T10:19:23.310Z,80.71
2023-01-01T10:20:23.334Z,80.60
2023-01-01T10:21:23.265Z,80.94
2023-01-01T10:22:23.259Z,81.05
2023-01-01T10:23:23.253Z,80.24
2023-01-01T10:24:23.270Z,80.44
2023-01-01T10:25:23.235Z,80.94
2023-01-01T10:26:23.227Z,81.66
2023-01-01T10:27:23.212Z,81.52
2023-01-01T10:28:23.215Z,82.26
2023-01-01T10:29:23.221Z,82.37
2023-01-01T10:30:23.308Z,81.56
2023-01-01T10:31:23.235Z,81.25
2023-01-01T10:32:23.176Z,82.26
2023-01-01T10:33:23.169Z,81.56
2023-01-01T10:34:23.189Z,82.37
2023-01-01T10:35:28.454Z,81.56
2023-01-01T10:36:25.146Z,81.56
2023-01-01T10:37:23.144Z,81.52
2023-01-01T10:38:23.127Z,81.52
2023-01-01T10:39:23.147Z,81.62
2023-01-01T10:40:23.119Z,81.41
2023-01-01T10:41:23.110Z,81.52
2023-01-01T10:42:23.095Z,81.41
2023-01-01T10:43:23.095Z,80.80
2023-01-01T10:44:23.114Z,81.38
2023-01-01T10:45:23.072Z,80.66
2023-01-01T10:46:29.533Z,80.57
2023-01-01T10:47:25.053Z,80.06
2023-01-01T10:48:23.051Z,79.65
2023-01-01T10:49:23.077Z,80.36
2023-01-01T10:50:23.041Z,80.46
2023-01-01T10:51:23.035Z,80.97
2023-01-01T10:52:23.029Z,80.16
2023-01-01T10:53:23.009Z,81.01
2023-01-01T10:54:26.561Z,80.77
2023-01-01T10:55:24.995Z,80.57
2023-01-01T10:56:22.987Z,80.50
2023-01-01T10:57:22.982Z,80.57
2023-01-01T10:58:22.977Z,80.16
2023-01-01T10:59:23.078Z,80.16
2023-01-01T11:00:22.959Z,80.16
2023-01-01T11:01:23.034Z,80.66
2023-01-01T11:02:23.143Z,80.91
2023-01-01T11:03:22.999Z,80.46
2023-01-01T11:04:22.951Z,80.50
2023-01-01T11:05:23.050Z,80.77
2023-01-01T11:06:22.904Z,79.35
2023-01-01T11:07:22.897Z,80.97
2023-01-01T11:08:22.888Z,80.16
2023-01-01T11:09:22.875Z,80.16
2023-01-01T11:10:22.890Z,80.26
2023-01-01T11:11:22.866Z,80.19
2023-01-01T11:12:54.544Z,80.60
2023-01-01T11:13:24.881Z,80.80
2023-01-01T11:14:22.856Z,80.91
2023-01-01T11:15:22.857Z,80.80
2023-01-01T11:16:22.882Z,80.60
2023-01-01T11:17:22.830Z,81.21
2023-01-01T11:18:22.814Z,82.53
2023-01-01T11:19:22.805Z,82.33
2023-01-01T11:20:22.826Z,81.62
2023-01-01T11:21:22.786Z,81.31
2023-01-01T11:22:22.777Z,81.52
2023-01-01T11:23:22.768Z,81.41
2023-01-01T11:24:22.770Z,82.23
2023-01-01T11:25:22.794Z,82.12
2023-01-01T11:26:22.759Z,81.62
2023-01-01T11:27:22.747Z,81.52
2023-01-01T11:28:22.732Z,81.52
2023-01-01T11:29:22.723Z,81.52
2023-01-01T11:30:22.761Z,81.52
2023-01-01T11:31:22.806Z,80.91
2023-01-01T11:32:22.753Z,80.60
2023-01-01T11:33:22.705Z,81.62
2023-01-01T11:34:22.779Z,81.52
2023-01-01T11:35:22.733Z,81.18
2023-01-01T11:36:22.679Z,80.97
2023-01-01T11:37:22.669Z,81.31
2023-01-01T11:38:29.280Z,81.52
2023-01-01T11:39:24.647Z,80.77
2023-01-01T11:40:22.709Z,80.91
2023-01-01T11:41:22.631Z,82.33
2023-01-01T11:42:22.631Z,81.78
2023-01-01T11:43:22.628Z,81.62
2023-01-01T11:44:22.638Z,82.23
2023-01-01T11:45:22.669Z,82.23
2023-01-01T11:46:22.680Z,82.03
2023-01-01T11:47:22.602Z,81.82
2023-01-01T11:48:22.618Z,82.33
2023-01-01T11:49:22.620Z,82.33
2023-01-01T11:50:22.591Z,82.33
2023-01-01T11:51:22.583Z,82.03
2023-01-01T11:52:22.547Z,81.52
2023-01-01T11:53:22.534Z,82.33
2023-01-01T11:54:22.537Z,82.84
2023-01-01T11:55:22.567Z,82.87
2023-01-01T11:56:22.523Z,82.67
2023-01-01T11:57:22.511Z,82.67
2023-01-01T11:58:22.494Z,83.18
2023-01-01T11:59:22.497Z,82.67
2023-01-01T12:00:22.531Z,82.87
2023-01-01T12:01:22.507Z,82.87
2023-01-01T12:02:22.480Z,82.98
2023-01-01T12:03:23.331Z,82.87
2023-01-01T12:04:22.528Z,82.67
2023-01-01T12:05:22.475Z,82.17
2023-01-01T12:06:22.435Z,82.37
2023-01-01T12:07:22.430Z,82.78
2023-01-01T12:08:22.416Z,82.67
2023-01-01T12:09:22.409Z,82.87
2023-01-01T12:10:22.432Z,82.87
2023-01-01T12:11:22.410Z,82.78
2023-01-01T12:12:22.411Z,82.78
2023-01-01T12:13:22.385Z,83.18
2023-01-01T12:14:22.374Z,82.98
2023-01-01T12:15:22.401Z,83.28
2023-01-01T12:16:22.511Z,83.48
2023-01-01T12:17:22.357Z,83.28
2023-01-01T12:18:22.342Z,83.53
2023-01-01T12:19:22.344Z,84.54
2023-01-01T12:20:22.321Z,83.12
2023-01-01T12:21:22.345Z,83.32
2023-01-01T12:22:22.305Z,83.38
2023-01-01T12:23:22.297Z,83.42
2023-01-01T12:24:23.292Z,83.53
2023-01-01T12:25:22.280Z,83.62
2023-01-01T12:26:22.306Z,83.62
2023-01-01T12:27:22.270Z,83.73
2023-01-01T12:28:22.267Z,83.73
2023-01-01T12:29:22.260Z,83.22
2023-01-01T12:30:22.271Z,83.32
2023-01-01T12:31:22.317Z,83.62
2023-01-01T12:32:22.231Z,83.69
2023-01-01T12:33:22.214Z,83.53
2023-01-01T12:34:22.209Z,83.22
2023-01-01T12:35:22.210Z,83.73
2023-01-01T12:36:22.220Z,83.32
2023-01-01T12:37:22.188Z,83.62
2023-01-01T12:38:22.254Z,84.58
2023-01-01T12:39:22.197Z,84.38
2023-01-01T12:40:24.725Z,84.54
2023-01-01T12:41:23.185Z,83.62
2023-01-01T12:42:22.145Z,83.97
2023-01-01T12:43:22.132Z,83.56
2023-01-01T12:44:22.141Z,83.12
2023-01-01T12:45:25.713Z,83.56
2023-01-01T12:46:24.197Z,84.44
2023-01-01T12:47:22.117Z,84.23
2023-01-01T12:48:22.096Z,84.78
2023-01-01T12:49:22.089Z,84.58
2023-01-01T12:50:22.094Z,84.48
2023-01-01T12:51:22.098Z,84.38
2023-01-01T12:52:22.065Z,84.28